METAR Data
IDs: Format: Raw Decoded Include TAF

Data at: 1326 UTC 24 Jan 2021

KSIY 241253Z AUTO 00000KT 10SM CLR M04/M06 A2988 RMK AO2 SLP139 T10391061